createdAt,value
2023-01-09T00:01:00.881Z,7.84
2023-01-09T00:03:27.317Z,7.84
2023-01-09T00:05:53.765Z,7.75
2023-01-09T00:08:20.255Z,7.75
2023-01-09T00:10:49.095Z,7.67
2023-01-09T00:13:15.733Z,7.58
2023-01-09T00:15:42.189Z,7.60
2023-01-09T00:18:08.799Z,7.57
2023-01-09T00:20:35.837Z,7.47
2023-01-09T00:23:02.338Z,7.48
2023-01-09T00:25:28.873Z,7.42
2023-01-09T00:27:55.297Z,7.47
2023-01-09T00:30:21.671Z,7.48
2023-01-09T00:32:48.266Z,7.51
2023-01-09T00:35:17.481Z,7.48
2023-01-09T00:37:44.179Z,7.48
2023-01-09T00:40:13.437Z,7.46
2023-01-09T00:42:40.332Z,7.46
2023-01-09T00:45:16.668Z,7.39
2023-01-09T00:47:48.397Z,7.30
2023-01-09T00:50:21.059Z,7.37
2023-01-09T00:52:49.361Z,7.31
2023-01-09T00:55:16.350Z,7.28
2023-01-09T01:00:36.025Z,7.37
2023-01-09T01:03:02.807Z,7.33
2023-01-09T01:05:47.916Z,7.28
2023-01-09T01:08:16.603Z,7.34
2023-01-09T01:10:44.157Z,7.37
2023-01-09T01:13:11.439Z,7.44
2023-01-09T01:15:42.494Z,7.42
2023-01-09T01:18:11.951Z,7.43
2023-01-09T01:20:43.446Z,7.48
2023-01-09T01:23:10.214Z,7.40
2023-01-09T01:25:41.228Z,7.51
2023-01-09T01:28:08.470Z,7.54
2023-01-09T01:30:40.586Z,7.57
2023-01-09T01:33:08.586Z,7.57
2023-01-09T01:35:35.575Z,7.51
2023-01-09T01:38:02.511Z,7.53
2023-01-09T01:40:30.125Z,7.57
2023-01-09T01:42:57.782Z,7.55
2023-01-09T01:45:29.723Z,7.54
2023-01-09T01:48:10.798Z,7.54
2023-01-09T01:50:49.410Z,7.50
2023-01-09T01:53:28.364Z,7.53
2023-01-09T01:56:22.445Z,7.53
2023-01-09T01:59:18.118Z,7.51
2023-01-09T02:01:49.133Z,7.53
2023-01-09T02:04:16.439Z,7.55
2023-01-09T02:06:46.635Z,7.60
2023-01-09T02:09:15.290Z,7.54
2023-01-09T02:11:46.306Z,7.53
2023-01-09T02:14:14.120Z,7.65
2023-01-09T02:17:16.407Z,7.57
2023-01-09T02:20:24.952Z,7.63
2023-01-09T02:22:54.185Z,7.63
2023-01-09T02:25:58.372Z,7.60
2023-01-09T02:28:43.043Z,7.63
2023-01-09T02:31:28.143Z,7.63
2023-01-09T02:33:59.854Z,7.70
2023-01-09T02:36:37.225Z,7.64
2023-01-09T02:39:18.631Z,7.71
2023-01-09T02:41:55.345Z,7.70
2023-01-09T02:44:27.811Z,7.57
2023-01-09T02:47:06.689Z,7.53
2023-01-09T02:49:37.162Z,7.46
2023-01-09T02:52:12.759Z,7.70
2023-01-09T02:55:01.256Z,7.67
2023-01-09T02:57:42.953Z,7.70
2023-01-09T03:00:44.289Z,7.89
2023-01-09T03:03:18.264Z,7.98
2023-01-09T03:06:34.228Z,8.05
2023-01-09T03:09:06.895Z,8.01
2023-01-09T03:11:39.336Z,8.06
2023-01-09T03:14:13.225Z,7.99
2023-01-09T03:16:40.422Z,8.02
2023-01-09T03:19:12.931Z,7.96
2023-01-09T03:21:40.803Z,7.99
2023-01-09T03:24:07.409Z,7.91
2023-01-09T03:26:34.008Z,7.82
2023-01-09T03:29:01.078Z,7.70
2023-01-09T03:31:27.708Z,7.60
2023-01-09T03:33:54.229Z,7.64
2023-01-09T03:36:22.002Z,7.50
2023-01-09T03:38:48.970Z,7.55
2023-01-09T03:41:15.488Z,7.71
2023-01-09T03:43:41.921Z,7.81
2023-01-09T03:46:09.945Z,7.84
2023-01-09T03:48:36.469Z,7.79
2023-01-09T03:51:02.990Z,7.74
2023-01-09T03:53:29.440Z,7.68
2023-01-09T03:55:57.257Z,7.61
2023-01-09T03:58:24.584Z,7.65
2023-01-09T04:00:52.388Z,7.54
2023-01-09T04:03:21.045Z,7.34
2023-01-09T04:05:49.806Z,7.26
2023-01-09T04:08:16.877Z,7.12
2023-01-09T04:10:47.949Z,7.12
2023-01-09T04:13:14.407Z,7.10
2023-01-09T04:15:41.033Z,7.06
2023-01-09T04:18:07.842Z,6.96
2023-01-09T04:20:34.866Z,7.02
2023-01-09T04:23:02.111Z,7.07
2023-01-09T04:25:28.626Z,7.07
2023-01-09T04:27:55.056Z,7.02
2023-01-09T04:30:21.641Z,6.95
2023-01-09T04:32:48.226Z,6.85
2023-01-09T04:35:14.803Z,6.78
2023-01-09T04:37:41.283Z,6.75
2023-01-09T04:40:12.042Z,6.72
2023-01-09T04:42:39.445Z,6.65
2023-01-09T04:45:07.630Z,6.71
2023-01-09T04:47:34.109Z,6.65
2023-01-09T04:50:01.254Z,6.68
2023-01-09T04:52:28.262Z,6.78
2023-01-09T04:54:54.642Z,6.79
2023-01-09T04:57:21.364Z,6.81
2023-01-09T04:59:47.815Z,6.81
2023-01-09T05:02:14.455Z,6.74
2023-01-09T05:04:41.014Z,6.74
2023-01-09T05:07:07.768Z,6.67
2023-01-09T05:09:34.269Z,6.69
2023-01-09T05:12:01.854Z,6.69
2023-01-09T05:14:28.506Z,6.82
2023-01-09T05:16:54.966Z,6.84
2023-01-09T05:19:21.500Z,6.81
2023-01-09T05:21:47.928Z,6.82
2023-01-09T05:24:14.372Z,6.82
2023-01-09T05:26:40.929Z,6.86
2023-01-09T05:29:07.622Z,6.95
2023-01-09T05:31:34.130Z,6.97
2023-01-09T05:34:00.965Z,7.06
2023-01-09T05:36:28.195Z,7.20
2023-01-09T05:38:54.589Z,7.23
2023-01-09T05:41:22.511Z,7.30
2023-01-09T05:43:49.955Z,7.27
2023-01-09T05:46:16.514Z,7.31
2023-01-09T05:48:44.455Z,7.33
2023-01-09T05:51:11.833Z,7.37
2023-01-09T05:53:38.376Z,7.47
2023-01-09T05:56:04.957Z,7.39
2023-01-09T05:58:31.571Z,7.40
2023-01-09T06:00:59.426Z,7.43
2023-01-09T06:03:25.923Z,7.46
2023-01-09T06:05:52.354Z,7.33
2023-01-09T06:08:18.778Z,7.47
2023-01-09T06:10:47.002Z,7.50
2023-01-09T06:13:13.816Z,7.44
2023-01-09T06:15:40.294Z,7.42
2023-01-09T06:18:07.090Z,7.33
2023-01-09T06:20:34.098Z,7.44
2023-01-09T06:25:42.691Z,7.40
2023-01-09T06:28:09.185Z,7.44
2023-01-09T06:30:35.599Z,7.47
2023-01-09T06:33:02.048Z,7.48
2023-01-09T06:35:28.754Z,7.50
2023-01-09T06:37:55.322Z,7.55
2023-01-09T06:40:21.712Z,7.57
2023-01-09T06:42:49.254Z,7.54
2023-01-09T06:45:15.757Z,7.53
2023-01-09T06:47:43.652Z,7.55
2023-01-09T06:50:10.762Z,7.58
2023-01-09T06:52:37.440Z,7.60
2023-01-09T06:55:04.204Z,7.63
2023-01-09T06:57:30.761Z,7.63
2023-01-09T06:59:57.744Z,7.67
2023-01-09T07:02:24.303Z,7.65
2023-01-09T07:04:50.775Z,7.65
2023-01-09T07:07:18.284Z,7.64
2023-01-09T07:09:44.615Z,7.63
2023-01-09T07:12:11.059Z,7.68
2023-01-09T07:14:37.428Z,7.60
2023-01-09T07:17:03.843Z,7.57
2023-01-09T07:19:30.185Z,7.58
2023-01-09T07:21:56.577Z,7.61
2023-01-09T07:24:23.019Z,7.63
2023-01-09T07:26:49.453Z,7.63
2023-01-09T07:32:36.513Z,7.58
2023-01-09T07:35:03.029Z,7.58
2023-01-09T07:37:29.402Z,7.64
2023-01-09T07:39:55.744Z,7.63
2023-01-09T07:42:22.242Z,7.65
2023-01-09T07:44:49.526Z,7.64
2023-01-09T07:47:16.142Z,7.61
2023-01-09T07:49:42.625Z,7.64
2023-01-09T07:52:09.224Z,7.60
2023-01-09T07:54:35.628Z,7.67
2023-01-09T07:57:03.090Z,7.61
2023-01-09T07:59:29.760Z,7.64
2023-01-09T08:01:56.780Z,7.65
2023-01-09T08:04:23.597Z,7.61
2023-01-09T08:06:50.095Z,7.64
2023-01-09T08:09:16.582Z,7.58
2023-01-09T08:11:43.043Z,7.58
2023-01-09T08:14:09.443Z,7.54
2023-01-09T08:16:35.848Z,7.55
2023-01-09T08:19:02.357Z,7.58
2023-01-09T08:21:28.741Z,7.64
2023-01-09T08:23:55.201Z,7.61
2023-01-09T08:26:23.528Z,7.64
2023-01-09T08:28:53.048Z,7.61
2023-01-09T08:31:19.584Z,7.60
2023-01-09T08:33:46.190Z,7.60
2023-01-09T08:36:12.651Z,7.63
2023-01-09T08:38:39.173Z,7.64
2023-01-09T08:41:25.755Z,7.74
2023-01-09T08:44:11.048Z,7.81
2023-01-09T08:46:55.927Z,7.85
2023-01-09T08:49:22.513Z,7.88
2023-01-09T08:51:48.925Z,7.92
2023-01-09T08:54:15.438Z,7.92
2023-01-09T08:56:41.866Z,7.98
2023-01-09T08:59:10.103Z,7.88
2023-01-09T09:01:36.702Z,7.77
2023-01-09T09:04:05.202Z,7.77
2023-01-09T09:06:32.963Z,7.65
2023-01-09T09:09:03.358Z,7.60
2023-01-09T09:11:33.875Z,7.60
2023-01-09T09:14:00.625Z,7.53
2023-01-09T09:16:27.929Z,7.51
2023-01-09T09:18:54.384Z,7.48
2023-01-09T09:21:20.861Z,7.46
2023-01-09T09:23:47.311Z,7.33
2023-01-09T09:26:13.877Z,7.26
2023-01-09T09:28:40.233Z,7.24
2023-01-09T09:31:07.712Z,7.22
2023-01-09T09:33:34.137Z,7.09
2023-01-09T09:36:00.655Z,7.10
2023-01-09T09:38:28.797Z,7.09
2023-01-09T09:41:04.202Z,7.07
2023-01-09T09:44:36.582Z,7.16
2023-01-09T09:47:14.813Z,7.19
2023-01-09T09:49:50.123Z,7.22
2023-01-09T09:53:01.653Z,7.30
2023-01-09T09:55:33.164Z,7.23
2023-01-09T09:58:04.529Z,7.28
2023-01-09T10:00:31.098Z,7.35
2023-01-09T10:03:10.861Z,7.39
2023-01-09T10:05:43.904Z,7.35
2023-01-09T10:08:57.105Z,7.40
2023-01-09T10:11:32.471Z,7.58
2023-01-09T10:14:06.362Z,7.67
2023-01-09T10:17:26.902Z,7.78
2023-01-09T10:20:05.669Z,7.89
2023-01-09T10:22:49.222Z,8.03
2023-01-09T10:25:31.392Z,8.10
2023-01-09T10:28:19.458Z,8.25
2023-01-09T10:30:56.039Z,8.43
2023-01-09T10:33:41.163Z,8.64
2023-01-09T10:36:44.754Z,8.74
2023-01-09T10:39:21.188Z,8.81
2023-01-09T10:42:00.162Z,8.82
2023-01-09T10:44:35.996Z,8.88
2023-01-09T10:47:12.018Z,8.94
2023-01-09T10:49:38.614Z,8.94
2023-01-09T10:52:17.965Z,8.92
2023-01-09T10:54:54.518Z,9.05
2023-01-09T10:57:32.054Z,8.97
2023-01-09T10:59:58.524Z,8.98
2023-01-09T11:02:29.617Z,8.94
2023-01-09T11:04:56.038Z,8.95
2023-01-09T11:07:30.614Z,9.00
2023-01-09T11:10:08.107Z,8.88
2023-01-09T11:12:37.239Z,8.92
2023-01-09T11:15:15.720Z,8.95
2023-01-09T11:17:45.574Z,9.00
2023-01-09T11:20:32.579Z,8.91
2023-01-09T11:22:59.325Z,8.88
2023-01-09T11:25:28.498Z,8.94
2023-01-09T11:28:01.206Z,8.89
2023-01-09T11:30:28.763Z,8.98
2023-01-09T11:32:57.797Z,8.95
2023-01-09T11:35:34.216Z,9.02
2023-01-09T11:38:21.535Z,8.91
2023-01-09T11:40:58.760Z,8.95
2023-01-09T11:43:38.720Z,8.97
2023-01-09T11:46:08.014Z,9.04
2023-01-09T11:48:38.236Z,8.89
2023-01-09T11:51:22.526Z,8.89
2023-01-09T11:54:12.336Z,8.98
2023-01-09T11:56:40.790Z,8.97
2023-01-09T11:59:22.761Z,8.92
2023-01-09T12:02:17.318Z,8.92
2023-01-09T12:05:12.301Z,9.07
2023-01-09T12:08:15.014Z,9.05
2023-01-09T12:10:52.959Z,9.19
2023-01-09T12:13:38.459Z,9.10
2023-01-09T12:16:38.552Z,9.23
2023-01-09T12:19:45.277Z,9.07
2023-01-09T12:22:36.251Z,9.02
2023-01-09T12:25:26.094Z,9.00
2023-01-09T12:28:39.783Z,9.05
2023-01-09T12:31:27.542Z,8.87
2023-01-09T12:34:27.622Z,8.80
2023-01-09T12:37:23.032Z,8.70
2023-01-09T12:39:52.043Z,8.74
2023-01-09T12:42:43.043Z,8.71
2023-01-09T12:45:34.261Z,8.57
2023-01-09T12:48:19.699Z,8.47
2023-01-09T12:51:13.799Z,8.46
2023-01-09T12:53:51.267Z,8.50
2023-01-09T12:56:26.178Z,8.49
2023-01-09T12:59:00.328Z,8.43
2023-01-09T13:01:38.719Z,8.50
2023-01-09T13:04:37.245Z,8.63
2023-01-09T13:07:12.163Z,8.63
2023-01-09T13:09:47.340Z,8.64
2023-01-09T13:12:21.591Z,8.70
2023-01-09T13:14:59.435Z,8.65
2023-01-09T13:17:42.454Z,8.64
2023-01-09T13:20:22.604Z,8.70
2023-01-09T13:22:52.293Z,8.59
2023-01-09T13:25:18.972Z,8.50
2023-01-09T13:27:56.110Z,8.54
2023-01-09T13:30:51.463Z,8.50
2023-01-09T13:33:31.962Z,8.54
2023-01-09T13:36:00.056Z,8.54
2023-01-09T13:38:29.323Z,8.54
2023-01-09T13:41:26.523Z,8.61
2023-01-09T13:43:55.652Z,8.49
2023-01-09T13:46:23.181Z,8.56
2023-01-09T13:48:49.742Z,8.56
2023-01-09T13:51:36.443Z,8.47
2023-01-09T13:54:03.267Z,8.57
2023-01-09T13:56:30.007Z,8.57
2023-01-09T13:58:59.270Z,8.56
2023-01-09T14:01:28.472Z,8.61
2023-01-09T14:04:14.833Z,8.54
2023-01-09T14:06:41.546Z,8.65
2023-01-09T14:09:19.612Z,8.63
2023-01-09T14:11:47.293Z,8.65
2023-01-09T14:14:27.075Z,8.64
2023-01-09T14:16:53.676Z,8.61
2023-01-09T14:19:33.534Z,8.71
2023-01-09T14:22:00.865Z,8.59
2023-01-09T14:24:30.074Z,8.57
2023-01-09T14:26:59.561Z,8.61
2023-01-09T14:29:29.254Z,8.50
2023-01-09T14:32:23.767Z,8.57
2023-01-09T14:34:58.615Z,8.50
2023-01-09T14:37:28.520Z,8.50
2023-01-09T14:39:56.505Z,8.46
2023-01-09T14:42:27.310Z,8.47
2023-01-09T14:45:06.541Z,8.43
2023-01-09T14:47:52.100Z,8.37
2023-01-09T14:50:36.760Z,8.34
2023-01-09T14:53:08.062Z,8.29
2023-01-09T14:55:58.309Z,8.32
2023-01-09T14:58:33.324Z,8.29
2023-01-09T15:01:25.474Z,8.34
2023-01-09T15:04:01.350Z,8.47
2023-01-09T15:06:30.884Z,8.50
2023-01-09T15:09:08.111Z,8.47
2023-01-09T15:11:39.208Z,8.50
2023-01-09T15:14:06.446Z,8.52
2023-01-09T15:16:33.099Z,8.42
2023-01-09T15:19:03.832Z,8.43
2023-01-09T15:21:31.709Z,8.49
2023-01-09T15:24:22.787Z,8.44
2023-01-09T15:26:54.732Z,8.44
2023-01-09T15:29:21.525Z,8.42
2023-01-09T15:31:52.772Z,8.39
2023-01-09T15:34:22.523Z,8.34
2023-01-09T15:36:50.391Z,8.33
2023-01-09T15:39:25.314Z,8.37
2023-01-09T15:42:11.128Z,8.40
2023-01-09T15:44:40.476Z,8.33
2023-01-09T15:47:12.803Z,8.36
2023-01-09T15:49:39.426Z,8.28
2023-01-09T15:52:11.908Z,8.28
2023-01-09T15:54:40.064Z,8.19
2023-01-09T15:57:24.732Z,8.26
2023-01-09T15:59:55.833Z,8.15
2023-01-09T16:02:42.627Z,8.15
2023-01-09T16:05:16.578Z,8.07
2023-01-09T16:07:50.832Z,8.06
2023-01-09T16:10:34.468Z,8.02
2023-01-09T16:13:01.891Z,7.98
2023-01-09T16:15:33.376Z,7.99
2023-01-09T16:18:18.238Z,7.92
2023-01-09T16:20:45.593Z,7.86
2023-01-09T16:23:29.535Z,7.81
2023-01-09T16:26:11.599Z,7.82
2023-01-09T16:28:40.805Z,7.89
2023-01-09T16:31:18.579Z,7.85
2023-01-09T16:33:52.224Z,7.82
2023-01-09T16:36:19.208Z,7.91
2023-01-09T16:38:46.060Z,7.92
2023-01-09T16:41:38.987Z,7.89
2023-01-09T16:44:09.759Z,7.98
2023-01-09T16:46:39.540Z,7.86
2023-01-09T16:49:20.407Z,7.86
2023-01-09T16:51:47.959Z,7.79
2023-01-09T16:54:14.670Z,7.81
2023-01-09T16:56:43.853Z,7.81
2023-01-09T16:59:15.127Z,7.75
2023-01-09T17:01:43.508Z,7.78
2023-01-09T17:04:15.300Z,7.71
2023-01-09T17:06:42.527Z,7.65
2023-01-09T17:09:15.124Z,7.70
2023-01-09T17:11:50.242Z,7.60
2023-01-09T17:14:16.747Z,7.60
2023-01-09T17:16:45.885Z,7.64
2023-01-09T17:19:18.781Z,7.57
2023-01-09T17:21:45.858Z,7.53
2023-01-09T17:24:33.980Z,7.53
2023-01-09T17:27:20.415Z,7.53
2023-01-09T17:29:47.458Z,7.55
2023-01-09T17:32:23.049Z,7.57
2023-01-09T17:34:49.430Z,7.64
2023-01-09T17:37:17.571Z,7.57
2023-01-09T17:39:45.285Z,7.61
2023-01-09T17:42:12.095Z,7.61
2023-01-09T17:44:38.568Z,7.51
2023-01-09T17:47:06.032Z,7.48
2023-01-09T17:49:32.547Z,7.53
2023-01-09T17:51:58.938Z,7.50
2023-01-09T17:54:25.323Z,7.40
2023-01-09T17:56:52.225Z,7.35
2023-01-09T17:59:18.948Z,7.33
2023-01-09T18:01:45.562Z,7.37
2023-01-09T18:04:12.355Z,7.39
2023-01-09T18:06:38.828Z,7.30
2023-01-09T18:09:06.230Z,7.31
2023-01-09T18:11:33.091Z,7.28
2023-01-09T18:13:59.524Z,7.33
2023-01-09T18:16:27.734Z,7.28
2023-01-09T18:18:58.034Z,7.27
2023-01-09T18:21:26.175Z,7.24
2023-01-09T18:23:52.931Z,7.26
2023-01-09T18:26:20.886Z,7.20
2023-01-09T18:28:59.312Z,7.20
2023-01-09T18:31:27.717Z,7.17
2023-01-09T18:33:56.550Z,7.20
2023-01-09T18:36:29.220Z,7.24
2023-01-09T18:38:57.562Z,7.35
2023-01-09T18:41:24.344Z,7.40
2023-01-09T18:43:52.957Z,7.39
2023-01-09T18:46:25.558Z,7.39
2023-01-09T18:48:55.779Z,7.30
2023-01-09T18:51:23.469Z,7.16
2023-01-09T18:53:50.744Z,7.05
2023-01-09T18:57:36.011Z,7.00
2023-01-09T19:00:02.889Z,6.96
2023-01-09T19:02:29.365Z,7.00
2023-01-09T19:04:56.013Z,7.07
2023-01-09T19:07:22.555Z,7.13
2023-01-09T19:09:49.074Z,7.16
2023-01-09T19:12:15.493Z,7.19
2023-01-09T19:14:44.471Z,7.23
2023-01-09T19:17:11.011Z,7.19
2023-01-09T19:19:37.441Z,7.13
2023-01-09T19:22:04.363Z,7.17
2023-01-09T19:24:32.808Z,7.19
2023-01-09T19:27:00.042Z,7.17
2023-01-09T19:29:27.370Z,7.22
2023-01-09T19:31:53.917Z,7.16
2023-01-09T19:34:20.467Z,7.17
2023-01-09T19:36:47.713Z,7.13
2023-01-09T19:39:17.441Z,7.09
2023-01-09T19:41:43.946Z,7.09
2023-01-09T19:44:10.915Z,7.07
2023-01-09T19:46:37.473Z,7.06
2023-01-09T19:49:05.037Z,7.02
2023-01-09T19:51:32.800Z,7.05
2023-01-09T19:56:34.119Z,7.20
2023-01-09T19:59:03.065Z,7.26
2023-01-09T20:01:35.420Z,7.26
2023-01-09T20:04:07.484Z,7.23
2023-01-09T20:06:35.215Z,7.19
2023-01-09T20:09:04.085Z,7.16
2023-01-09T20:11:32.168Z,7.16
2023-01-09T20:13:58.759Z,7.17
2023-01-09T20:16:31.027Z,7.20
2023-01-09T20:18:59.876Z,7.23
2023-01-09T20:21:29.717Z,7.28
2023-01-09T20:24:00.069Z,7.34
2023-01-09T20:26:27.913Z,7.37
2023-01-09T20:28:54.620Z,7.30
2023-01-09T20:31:22.924Z,7.33
2023-01-09T20:33:51.522Z,7.34
2023-01-09T20:36:21.527Z,7.30
2023-01-09T20:38:48.097Z,7.31
2023-01-09T20:41:22.683Z,7.31
2023-01-09T20:43:50.846Z,7.27
2023-01-09T20:46:17.625Z,7.23
2023-01-09T20:48:44.444Z,7.30
2023-01-09T20:51:12.589Z,7.28
2023-01-09T20:53:43.571Z,7.27
2023-01-09T20:56:10.207Z,7.31
2023-01-09T20:58:36.806Z,7.28
2023-01-09T21:01:07.727Z,7.30
2023-01-09T21:03:34.164Z,7.30
2023-01-09T21:06:04.854Z,7.26
2023-01-09T21:08:31.275Z,7.27
2023-01-09T21:10:57.900Z,7.30
2023-01-09T21:13:26.002Z,7.30
2023-01-09T21:15:52.524Z,7.24
2023-01-09T21:18:19.112Z,7.23
2023-01-09T21:20:45.786Z,7.23
2023-01-09T21:23:12.251Z,7.22
2023-01-09T21:25:39.343Z,7.20
2023-01-09T21:28:07.011Z,7.17
2023-01-09T21:30:34.087Z,7.19
2023-01-09T21:33:00.535Z,7.17
2023-01-09T21:35:26.987Z,7.16
2023-01-09T21:37:53.445Z,7.14
2023-01-09T21:40:20.020Z,7.16
2023-01-09T21:43:05.127Z,7.12
2023-01-09T21:45:50.425Z,7.05
2023-01-09T21:48:17.152Z,7.02
2023-01-09T21:50:43.581Z,7.03
2023-01-09T21:53:10.079Z,7.03
2023-01-09T21:55:36.548Z,7.03
2023-01-09T21:58:03.438Z,7.07
2023-01-09T22:00:30.493Z,7.09
2023-01-09T22:02:57.202Z,7.00
2023-01-09T22:05:27.131Z,7.07
2023-01-09T22:07:56.271Z,7.10
2023-01-09T22:10:22.871Z,7.06
2023-01-09T22:13:09.353Z,7.09
2023-01-09T22:15:35.711Z,7.12
2023-01-09T22:18:04.673Z,7.16
2023-01-09T22:20:31.109Z,7.13
2023-01-09T22:22:57.466Z,7.12
2023-01-09T22:25:24.140Z,7.06
2023-01-09T22:27:50.479Z,7.05
2023-01-09T22:30:17.046Z,6.97
2023-01-09T22:32:43.720Z,6.89
2023-01-09T22:35:10.158Z,6.97
2023-01-09T22:37:36.622Z,7.00
2023-01-09T22:40:03.613Z,7.03
2023-01-09T22:42:30.010Z,6.96
2023-01-09T22:44:56.456Z,6.96
2023-01-09T22:47:23.435Z,7.02
2023-01-09T22:49:53.680Z,6.97
2023-01-09T22:52:21.609Z,7.00
2023-01-09T22:54:48.594Z,6.97
2023-01-09T22:57:15.107Z,7.10
2023-01-09T22:59:41.561Z,7.10
2023-01-09T23:02:08.076Z,7.07
2023-01-09T23:04:34.553Z,7.09
2023-01-09T23:07:00.988Z,7.07
2023-01-09T23:09:27.428Z,7.10
2023-01-09T23:12:02.731Z,7.14
2023-01-09T23:14:31.311Z,7.13
2023-01-09T23:16:57.809Z,7.09
2023-01-09T23:19:24.321Z,7.09
2023-01-09T23:21:51.100Z,7.05
2023-01-09T23:24:18.707Z,7.03
2023-01-09T23:26:45.209Z,6.97
2023-01-09T23:29:12.361Z,7.03
2023-01-09T23:31:38.945Z,6.99
2023-01-09T23:34:08.071Z,6.92
2023-01-09T23:36:35.394Z,6.92
2023-01-09T23:39:04.100Z,6.86
2023-01-09T23:41:48.893Z,6.85
2023-01-09T23:44:15.354Z,6.89
2023-01-09T23:46:41.795Z,6.88
2023-01-09T23:49:08.294Z,6.93
2023-01-09T23:51:34.675Z,6.92
2023-01-09T23:54:01.133Z,6.97
2023-01-09T23:56:28.025Z,6.92
2023-01-09T23:58:54.469Z,6.97
